AddedLatest Added eBooks:

  1. 2020-01-11Cost Estimation - Basic course
  2. 2020-01-11Developing an Image Classifier Using TensorFlow Convolutional Neural Networks
  3. 2020-01-11LDAP Server Administration in 1 Hour
  4. 2020-01-11Logistics and supply chain management (Masterclass Gold)
  5. 2020-01-11esigning Data Visualizations Getting Started with Processing
  6. 2020-01-11Beano - 11 January 2020
  7. 2020-01-11A 3-Step Process for passing IT Service Management Exams
  8. 2020-01-11Abelssoft Data2Pocket 2020 3.3.52 Multilingual
  9. 2020-01-11Agile Commander 1.2.3
  10. 2020-01-11Learning the FOSS4g Stack Python for Geospatial
  11. 2020-01-11Sound Design 102 Using Synthesis for Music Production
  12. 2020-01-11The King's Jews; Money, Massacre and Exodus in Medieval England
  13. 2020-01-11R. Vidalie - Etude générale du moteur rotatif
  14. 2020-01-11ADINA System 9.5.4 (x64)
  15. 2020-01-11Bug Bounty Web Hacking (Updated 12020)
  16. 2020-01-11U-he Twangstrom v1.0.0.8189
  17. 2020-01-11How To Scale Your Small Business The 3 Fundamental Rules for a Business to Scale to Profit
  18. 2020-01-11Introduction to SQL Server Query Optimization Understanding Query Optimization and Built-in Optim...
  19. 2020-01-11Understanding Unittest.Mock
  20. 2020-01-113 An Eye For an Eye 2018 1080p WEBRip x264-RARBG
  21. 2020-01-118 Seconds 1994 1080p WEBRip x264-RARBG
  22. 2020-01-11A Reflection of Fear 1972 1080p WEBRip x264-RARBG
  23. 2020-01-11Accused at 17 2009 1080p WEBRip x264-RARBG
  24. 2020-01-11Blender 2.8 Architectural Course -Beginner to Intermediate
  25. 2020-01-11Amityville Exorcism 2017 1080p WEBRip x264-RARBG
  26. 2020-01-11Beautiful Prison 2016 1080p WEBRip x264-RARBG
  27. 2020-01-11Building a Solution Using Artificial Intelligence and IOT
  28. 2020-01-11Career Opportunities in Cloud Computing
  29. 2020-01-11Design of Solar PV Systems
  30. 2020-01-11How To Make A Wordpress Website Within One Hour 2020
  31. 2020-01-11After School Special 2017 1080p WEBRip x264-RARBG
  32. 2020-01-11Blue Hill Avenue 2001 1080p WEBRip x264-RARBG
  33. 2020-01-11Clownado 2019 1080p WEBRip x264-RARBG
  34. 2020-01-11City Slickers II The Legend Of Curlys Gold 1994 1080p WEBRip x264-RARBG
  35. 2020-01-11Cold Moon 2016 1080p WEBRip x264-RARBG
  36. 2020-01-11Introduction to the Raspberry Pi Single-Board Computing Projects
  37. 2020-01-11Python MTA 98-381 Exam Complete Preparation Course Tips (Updated)
  38. 2020-01-11Experience Watercolours Botanical Rosebud
  39. 2020-01-11How to Create Travel Website in WordPress
  40. 2020-01-11Dear Frankie 2004 1080p WEBRip x264-RARBG
  41. 2020-01-11First Night 2010 1080p WEBRip x264-RARBG
  42. 2020-01-11Getting Played 2006 1080p WEBRip x264-RARBG
  43. 2020-01-11Grind 2003 1080p WEBRip x264-RARBG
  44. 2020-01-11Ibiza 2018 1080p WEBRip x264-RARBG
  45. 2020-01-11Gray Matters 2006 1080p WEBRip x264-RARBG
  46. 2020-01-11Kangaroo Jack 2003 1080p WEBRip x264-RARBG
  47. 2020-01-11Keith 2008 1080p WEBRip x264-RARBG
  48. 2020-01-11My Baby Is Gone 2017 1080p WEBRip x264-RARBG
  49. 2020-01-11Pool Party Massacre 2017 1080p WEBRip x264-RARBG
  50. 2020-01-11Ravenswood 2017 1080p WEBRip x264-RARBG
  51. 2020-01-11Pretty Persuasion 2005 1080p WEBRip x264-RARBG
  52. 2020-01-11Set It Up 2018 1080p WEBRip x264-RARBG
  53. 2020-01-11What Separates Us 2017 WEBDL x264-FGT
  54. 2020-01-11Accused at 17 2009 WEB-DL XviD MP3-XVID
  55. 2020-01-11Camera Store 2016 WEBDL x264-FGT
  56. 2020-01-11Three Christs 2017 720p AMZN WEBRip DDP5 1 x264-iKA - Removed
  57. 2020-01-11Clownado 2019 WEB-DL XviD MP3-XVID
  58. 2020-01-11Beautiful Prison 2016 1080p WEBRip x264-RARBG
  59. 2020-01-113 An Eye For an Eye 2018 1080p WEBRip x264-RARBG
  60. 2020-01-11Camera Store 2016 1080p WEBRip x264-RARBG
  61. 2020-01-11Social Media Marketing 2020 | Grow from 0 to 40k in 4 months
  62. 2020-01-11DaVinci Resolve 15: The Complete Video Editing Course
  63. 2020-01-11Deploying and Migrating to Azure Web Apps Optimizing Web Server Workloads
  64. 2020-01-11Wattsatelier - Head Drawing Fundamentals
  65. 2020-01-11The Ultimate Microsoft Office 2013 Training Bundle 71 Hours
  66. 2020-01-11Oracle Cloud User Security Providing for Separation of Duties and Appropriate Access by Job Function
  67. 2020-01-11Splunk Enterprise Administration Working with Configuration Files and Indexes - Removed
  68. 2020-01-11Testing in Xcode Unit Testing, UI Testing, and Code Coverage
  69. 2020-01-11wordpress tutorial for beginners Easy To Understand
  70. 2020-01-11Modern C Concurrency in Depth
  71. 2020-01-11The Courier 2019 1080p BluRay H264 AAC-RARBG - Removed
  72. 2020-01-11The Sonata 2018 HDRip AC3 x264-CMRG
  73. 2020-01-11Build Augmented Reality (AR) Portal & Car with ARKIT & Unity
  74. 2020-01-11Seberg 2019 720p HDCAM-GETB8
  75. 2020-01-11Rise of the Footsoldier Marbella 2019 BRRip XviD AC3-XVID
  76. 2020-01-11Speed Of Life 2019 WEB-DL XviD AC3-FGT
  77. 2020-01-11Countdown 2019 BRRip XviD AC3-XVID - Removed
  78. 2020-01-11Doses of Horror 2018 720p AMZN WEBRip 800MB x264-GalaxyRG
  79. 2020-01-11Inherit The Viper 2019 WEB-DL XviD AC3-FGT
  80. 2020-01-11Preparing Your Organization for ISO 270012013 ComplianceCertification - Removed
  81. 2020-01-11Black and Blue 2019 BRRip XviD AC3-XVID
  82. 2020-01-11Ana 2019 WEB-DL XviD AC3-FGT
  83. 2020-01-11Abigail 2019 WEB-DL XviD AC3-FGT
  84. 2020-01-11Dance Together (2019) 720p WEBRip X264 Solar
  85. 2020-01-11Elves 2018 720p AMZN WEBRip 800MB x264-GalaxyRG
  86. 2020-01-11Inherit the Viper 2019 HDRip AC3 x264-CMRG
  87. 2020-01-11Ride Like a Girl 2019 BRRip XviD AC3-XVID
  88. 2020-01-11Rise of the Footsoldier Marbella 2019 1080p BluRay DD5 1 HEVC x265-RM
  89. 2020-01-11Tell It To The Bees 2018 1080p BluRay x264-YTS
  90. 2020-01-11The Addams Family 2019 1080p BluRay DD5 1 HEVC x265-RM
  91. 2020-01-11My Baby Is Gone 2017 WEBRip XviD MP3-XVID
  92. 2020-01-11Made In China 2019 1080p HDTV H264-DDR
  93. 2020-01-11The Mercenary 2019 WEB-DL XviD AC3-FGT
  94. 2020-01-11Pain and Glory 2019 1080p BluRay DD5 1 HEVC x265-RM
  95. 2020-01-11Party Crew 2018 720p AMZN WEBRip 800MB x264-GalaxyRG
  96. 2020-01-11Speed of Life 2020 HDRip AC3 x264-CMRG
  97. 2020-01-11Spunks Not Dead 2019 720p AMZN WEBRip 800MB x264-GalaxyRG
  98. 2020-01-11The Farm 2018 720p WEBRip 800MB x264-GalaxyRG
  99. 2020-01-11The Last Big Save 2019 WEB-DL XviD AC3-FGT

More eBooks ...

43748 pages, 4374734 eBooks in total, list all pages->

Search free ebooks in ebookee.com!
Back to Top